sensor_id;sensor_type;location;lat;lon;timestamp;temperature;humidity
69162;DHT22;56269;51.738;21.652;2023-03-12T00:01:23;-1.04;93.69
69162;DHT22;56269;51.738;21.652;2023-03-12T00:03:49;-1.09;93.64
69162;DHT22;56269;51.738;21.652;2023-03-12T00:06:17;-1.21;94.21
69162;DHT22;56269;51.738;21.652;2023-03-12T00:08:43;-1.22;94.19
69162;DHT22;56269;51.738;21.652;2023-03-12T00:11:12;-1.30;94.68
69162;DHT22;56269;51.738;21.652;2023-03-12T00:13:39;-1.45;95.21
69162;DHT22;56269;51.738;21.652;2023-03-12T00:16:11;-1.45;95.12
69162;DHT22;56269;51.738;21.652;2023-03-12T00:18:38;-1.48;95.26
69162;DHT22;56269;51.738;21.652;2023-03-12T00:21:05;-1.49;95.27
69162;DHT22;56269;51.738;21.652;2023-03-12T00:23:31;-1.53;95.50
69162;DHT22;56269;51.738;21.652;2023-03-12T00:26:02;-1.42;94.67
69162;DHT22;56269;51.738;21.652;2023-03-12T00:28:29;-1.45;94.88
69162;DHT22;56269;51.738;21.652;2023-03-12T00:30:55;-1.53;95.36
69162;DHT22;56269;51.738;21.652;2023-03-12T00:33:26;-1.60;95.52
69162;DHT22;56269;51.738;21.652;2023-03-12T00:35:55;-1.58;95.17
69162;DHT22;56269;51.738;21.652;2023-03-12T00:38:21;-1.60;95.18
69162;DHT22;56269;51.738;21.652;2023-03-12T00:40:48;-1.60;95.35
69162;DHT22;56269;51.738;21.652;2023-03-12T00:43:14;-1.63;95.13
69162;DHT22;56269;51.738;21.652;2023-03-12T00:45:40;-1.62;95.25
69162;DHT22;56269;51.738;21.652;2023-03-12T00:48:06;-1.60;95.32
69162;DHT22;56269;51.738;21.652;2023-03-12T00:50:33;-1.63;95.22
69162;DHT22;56269;51.738;21.652;2023-03-12T00:52:59;-1.56;95.44
69162;DHT22;56269;51.738;21.652;2023-03-12T00:55:25;-1.55;95.37
69162;DHT22;56269;51.738;21.652;2023-03-12T00:57:51;-1.56;95.15
69162;DHT22;56269;51.738;21.652;2023-03-12T01:00:18;-1.55;94.86
69162;DHT22;56269;51.738;21.652;2023-03-12T01:02:44;-1.60;95.37
69162;DHT22;56269;51.738;21.652;2023-03-12T01:05:11;-1.70;95.84
69162;DHT22;56269;51.738;21.652;2023-03-12T01:07:38;-1.79;96.12
69162;DHT22;56269;51.738;21.652;2023-03-12T01:10:06;-1.76;96.08
69162;DHT22;56269;51.738;21.652;2023-03-12T01:12:33;-1.75;96.11
69162;DHT22;56269;51.738;21.652;2023-03-12T01:14:59;-1.83;96.33
69162;DHT22;56269;51.738;21.652;2023-03-12T01:17:25;-1.82;96.30
69162;DHT22;56269;51.738;21.652;2023-03-12T01:19:52;-1.83;96.83
69162;DHT22;56269;51.738;21.652;2023-03-12T01:22:18;-1.77;96.49
69162;DHT22;56269;51.738;21.652;2023-03-12T01:24:44;-1.75;96.56
69162;DHT22;56269;51.738;21.652;2023-03-12T01:27:10;-1.72;97.02
69162;DHT22;56269;51.738;21.652;2023-03-12T01:29:37;-1.65;96.79
69162;DHT22;56269;51.738;21.652;2023-03-12T01:32:03;-1.62;97.00
69162;DHT22;56269;51.738;21.652;2023-03-12T01:34:29;-1.63;97.20
69162;DHT22;56269;51.738;21.652;2023-03-12T01:36:58;-1.72;96.94
69162;DHT22;56269;51.738;21.652;2023-03-12T01:39:24;-1.73;97.16
69162;DHT22;56269;51.738;21.652;2023-03-12T01:41:50;-1.84;97.48
69162;DHT22;56269;51.738;21.652;2023-03-12T01:44:17;-1.90;97.99
69162;DHT22;56269;51.738;21.652;2023-03-12T01:46:44;-1.90;97.98
69162;DHT22;56269;51.738;21.652;2023-03-12T01:49:31;-1.93;97.95
69162;DHT22;56269;51.738;21.652;2023-03-12T01:52:04;-1.98;97.97
69162;DHT22;56269;51.738;21.652;2023-03-12T01:56:59;-2.04;98.51
69162;DHT22;56269;51.738;21.652;2023-03-12T01:59:34;-2.11;98.66
69162;DHT22;56269;51.738;21.652;2023-03-12T02:02:03;-2.15;98.80
69162;DHT22;56269;51.738;21.652;2023-03-12T02:04:31;-2.20;98.84
69162;DHT22;56269;51.738;21.652;2023-03-12T02:07:08;-2.37;99.32
69162;DHT22;56269;51.738;21.652;2023-03-12T02:09:39;-2.35;99.66
69162;DHT22;56269;51.738;21.652;2023-03-12T02:12:06;-2.41;99.87
69162;DHT22;56269;51.738;21.652;2023-03-12T02:14:33;-2.44;99.85
69162;DHT22;56269;51.738;21.652;2023-03-12T02:16:59;-2.38;99.87
69162;DHT22;56269;51.738;21.652;2023-03-12T02:22:07;-2.33;99.54
69162;DHT22;56269;51.738;21.652;2023-03-12T02:24:45;-2.27;99.49
69162;DHT22;56269;51.738;21.652;2023-03-12T02:27:13;-2.23;99.45
69162;DHT22;56269;51.738;21.652;2023-03-12T02:29:42;-2.15;99.44
69162;DHT22;56269;51.738;21.652;2023-03-12T02:32:17;-2.07;99.61
69162;DHT22;56269;51.738;21.652;2023-03-12T02:34:45;-1.94;98.92
69162;DHT22;56269;51.738;21.652;2023-03-12T02:37:13;-1.89;98.95
69162;DHT22;56269;51.738;21.652;2023-03-12T02:39:40;-1.80;98.54
69162;DHT22;56269;51.738;21.652;2023-03-12T02:42:07;-1.77;98.60
69162;DHT22;56269;51.738;21.652;2023-03-12T02:44:34;-1.72;98.54
69162;DHT22;56269;51.738;21.652;2023-03-12T02:47:02;-1.75;98.20
69162;DHT22;56269;51.738;21.652;2023-03-12T02:49:31;-1.73;97.80
69162;DHT22;56269;51.738;21.652;2023-03-12T02:51:58;-1.75;98.03
69162;DHT22;56269;51.738;21.652;2023-03-12T02:54:25;-1.72;97.79
69162;DHT22;56269;51.738;21.652;2023-03-12T02:56:52;-1.67;97.75
69162;DHT22;56269;51.738;21.652;2023-03-12T02:59:19;-1.69;97.39
69162;DHT22;56269;51.738;21.652;2023-03-12T03:01:46;-1.63;97.81
69162;DHT22;56269;51.738;21.652;2023-03-12T03:04:16;-1.59;97.14
69162;DHT22;56269;51.738;21.652;2023-03-12T03:06:43;-1.58;97.55
69162;DHT22;56269;51.738;21.652;2023-03-12T03:09:09;-1.56;97.13
69162;DHT22;56269;51.738;21.652;2023-03-12T03:11:35;-1.60;97.70
69162;DHT22;56269;51.738;21.652;2023-03-12T03:14:02;-1.52;96.87
69162;DHT22;56269;51.738;21.652;2023-03-12T03:16:29;-1.53;97.60
69162;DHT22;56269;51.738;21.652;2023-03-12T03:18:55;-1.53;97.38
69162;DHT22;56269;51.738;21.652;2023-03-12T03:21:21;-1.48;97.03
69162;DHT22;56269;51.738;21.652;2023-03-12T03:23:49;-1.46;96.67
69162;DHT22;56269;51.738;21.652;2023-03-12T03:26:18;-1.46;97.28
69162;DHT22;56269;51.738;21.652;2023-03-12T03:28:45;-1.45;96.86
69162;DHT22;56269;51.738;21.652;2023-03-12T03:31:11;-1.45;97.27
69162;DHT22;56269;51.738;21.652;2023-03-12T03:33:38;-1.41;96.61
69162;DHT22;56269;51.738;21.652;2023-03-12T03:36:05;-1.36;97.29
69162;DHT22;56269;51.738;21.652;2023-03-12T03:38:33;-1.39;97.16
69162;DHT22;56269;51.738;21.652;2023-03-12T03:41:00;-1.41;96.98
69162;DHT22;56269;51.738;21.652;2023-03-12T03:43:26;-1.42;97.11
69162;DHT22;56269;51.738;21.652;2023-03-12T03:46:00;-1.38;97.33
69162;DHT22;56269;51.738;21.652;2023-03-12T03:48:27;-1.38;97.11
69162;DHT22;56269;51.738;21.652;2023-03-12T03:50:54;-1.35;97.01
69162;DHT22;56269;51.738;21.652;2023-03-12T03:53:24;-1.31;97.24
69162;DHT22;56269;51.738;21.652;2023-03-12T03:55:50;-1.31;97.41
69162;DHT22;56269;51.738;21.652;2023-03-12T03:58:17;-1.32;97.30
69162;DHT22;56269;51.738;21.652;2023-03-12T04:00:44;-1.30;96.95
69162;DHT22;56269;51.738;21.652;2023-03-12T04:03:11;-1.25;97.03
69162;DHT22;56269;51.738;21.652;2023-03-12T04:05:39;-1.22;96.88
69162;DHT22;56269;51.738;21.652;2023-03-12T04:08:11;-1.21;97.10
69162;DHT22;56269;51.738;21.652;2023-03-12T04:10:37;-1.19;96.85
69162;DHT22;56269;51.738;21.652;2023-03-12T04:13:04;-1.15;97.11
69162;DHT22;56269;51.738;21.652;2023-03-12T04:15:30;-1.08;96.46
69162;DHT22;56269;51.738;21.652;2023-03-12T04:17:56;-1.07;96.26
69162;DHT22;56269;51.738;21.652;2023-03-12T04:20:22;-1.02;96.60
69162;DHT22;56269;51.738;21.652;2023-03-12T04:22:49;-0.98;96.43
69162;DHT22;56269;51.738;21.652;2023-03-12T04:25:15;-1.00;96.45
69162;DHT22;56269;51.738;21.652;2023-03-12T04:27:41;-0.98;96.58
69162;DHT22;56269;51.738;21.652;2023-03-12T04:30:08;-0.92;96.22
69162;DHT22;56269;51.738;21.652;2023-03-12T04:32:34;-0.91;95.85
69162;DHT22;56269;51.738;21.652;2023-03-12T04:35:00;-0.91;96.27
69162;DHT22;56269;51.738;21.652;2023-03-12T04:37:27;-0.90;96.33
69162;DHT22;56269;51.738;21.652;2023-03-12T04:39:53;-0.81;95.48
69162;DHT22;56269;51.738;21.652;2023-03-12T04:42:19;-0.83;95.85
69162;DHT22;56269;51.738;21.652;2023-03-12T04:44:45;-0.79;96.00
69162;DHT22;56269;51.738;21.652;2023-03-12T04:47:12;-0.77;95.86
69162;DHT22;56269;51.738;21.652;2023-03-12T04:49:38;-0.76;95.69
69162;DHT22;56269;51.738;21.652;2023-03-12T04:52:05;-0.77;95.90
69162;DHT22;56269;51.738;21.652;2023-03-12T04:54:31;-0.74;96.03
69162;DHT22;56269;51.738;21.652;2023-03-12T04:56:58;-0.73;95.41
69162;DHT22;56269;51.738;21.652;2023-03-12T04:59:24;-0.70;95.45
69162;DHT22;56269;51.738;21.652;2023-03-12T05:01:51;-0.71;96.09
69162;DHT22;56269;51.738;21.652;2023-03-12T05:04:17;-0.67;95.50
69162;DHT22;56269;51.738;21.652;2023-03-12T05:06:43;-0.66;95.11
69162;DHT22;56269;51.738;21.652;2023-03-12T05:09:09;-0.64;95.26
69162;DHT22;56269;51.738;21.652;2023-03-12T05:11:36;-0.66;95.32
69162;DHT22;56269;51.738;21.652;2023-03-12T05:14:02;-0.64;95.62
69162;DHT22;56269;51.738;21.652;2023-03-12T05:16:29;-0.60;95.19
69162;DHT22;56269;51.738;21.652;2023-03-12T05:18:55;-0.54;94.82
69162;DHT22;56269;51.738;21.652;2023-03-12T05:21:22;-0.59;94.97
69162;DHT22;56269;51.738;21.652;2023-03-12T05:23:48;-0.57;95.24
69162;DHT22;56269;51.738;21.652;2023-03-12T05:26:23;-0.56;95.10
69162;DHT22;56269;51.738;21.652;2023-03-12T05:28:51;-0.54;95.58
69162;DHT22;56269;51.738;21.652;2023-03-12T05:31:18;-0.54;95.31
69162;DHT22;56269;51.738;21.652;2023-03-12T05:33:45;-0.56;95.50
69162;DHT22;56269;51.738;21.652;2023-03-12T05:36:12;-0.53;95.80
69162;DHT22;56269;51.738;21.652;2023-03-12T05:38:39;-0.53;95.63
69162;DHT22;56269;51.738;21.652;2023-03-12T05:41:18;-0.49;95.70
69162;DHT22;56269;51.738;21.652;2023-03-12T05:43:45;-0.49;95.63
69162;DHT22;56269;51.738;21.652;2023-03-12T05:46:11;-0.49;95.48
69162;DHT22;56269;51.738;21.652;2023-03-12T05:48:37;-0.46;95.64
69162;DHT22;56269;51.738;21.652;2023-03-12T05:51:04;-0.42;95.55
69162;DHT22;56269;51.738;21.652;2023-03-12T05:53:30;-0.39;95.59
69162;DHT22;56269;51.738;21.652;2023-03-12T05:56:05;-0.36;95.51
69162;DHT22;56269;51.738;21.652;2023-03-12T05:58:32;-0.34;95.65
69162;DHT22;56269;51.738;21.652;2023-03-12T06:01:00;-0.30;95.43
69162;DHT22;56269;51.738;21.652;2023-03-12T06:03:26;-0.23;95.19
69162;DHT22;56269;51.738;21.652;2023-03-12T06:05:53;-0.22;95.26
69162;DHT22;56269;51.738;21.652;2023-03-12T06:08:22;-0.19;95.03
69162;DHT22;56269;51.738;21.652;2023-03-12T06:10:52;-0.09;95.21
69162;DHT22;56269;51.738;21.652;2023-03-12T06:13:20;-0.13;95.12
69162;DHT22;56269;51.738;21.652;2023-03-12T06:15:48;-0.08;95.58
69162;DHT22;56269;51.738;21.652;2023-03-12T06:18:14;-0.05;95.32
69162;DHT22;56269;51.738;21.652;2023-03-12T06:20:41;-0.09;95.19
69162;DHT22;56269;51.738;21.652;2023-03-12T06:23:07;-0.15;94.92
69162;DHT22;56269;51.738;21.652;2023-03-12T06:25:33;-0.16;95.69
69162;DHT22;56269;51.738;21.652;2023-03-12T06:27:59;-0.16;94.89
69162;DHT22;56269;51.738;21.652;2023-03-12T06:30:26;-0.13;95.19
69162;DHT22;56269;51.738;21.652;2023-03-12T06:32:53;-0.08;94.78
69162;DHT22;56269;51.738;21.652;2023-03-12T06:35:19;-0.12;94.92
69162;DHT22;56269;51.738;21.652;2023-03-12T06:37:45;0.02;94.92
69162;DHT22;56269;51.738;21.652;2023-03-12T06:40:12;0.19;93.94
69162;DHT22;56269;51.738;21.652;2023-03-12T06:42:38;0.28;93.45
69162;DHT22;56269;51.738;21.652;2023-03-12T06:45:11;0.32;93.19
69162;DHT22;56269;51.738;21.652;2023-03-12T06:47:52;0.50;93.17
69162;DHT22;56269;51.738;21.652;2023-03-12T06:50:19;0.59;92.23
69162;DHT22;56269;51.738;21.652;2023-03-12T06:52:45;0.72;91.96
69162;DHT22;56269;51.738;21.652;2023-03-12T06:55:11;0.59;91.91
69162;DHT22;56269;51.738;21.652;2023-03-12T06:57:37;0.63;91.81
69162;DHT22;56269;51.738;21.652;2023-03-12T07:00:04;0.72;91.97
69162;DHT22;56269;51.738;21.652;2023-03-12T07:02:30;0.70;92.12
69162;DHT22;56269;51.738;21.652;2023-03-12T07:04:57;0.81;91.08
69162;DHT22;56269;51.738;21.652;2023-03-12T07:07:23;0.90;90.87
69162;DHT22;56269;51.738;21.652;2023-03-12T07:09:49;1.00;90.91
69162;DHT22;56269;51.738;21.652;2023-03-12T07:12:15;1.07;90.55
69162;DHT22;56269;51.738;21.652;2023-03-12T07:14:42;0.95;91.18
69162;DHT22;56269;51.738;21.652;2023-03-12T07:17:08;1.15;90.52
69162;DHT22;56269;51.738;21.652;2023-03-12T07:19:34;0.67;91.47
69162;DHT22;56269;51.738;21.652;2023-03-12T07:22:00;0.54;92.56
69162;DHT22;56269;51.738;21.652;2023-03-12T07:24:27;0.63;92.80
69162;DHT22;56269;51.738;21.652;2023-03-12T07:26:53;0.56;92.69
69162;DHT22;56269;51.738;21.652;2023-03-12T07:29:19;0.46;92.89
69162;DHT22;56269;51.738;21.652;2023-03-12T07:31:45;0.39;93.91
69162;DHT22;56269;51.738;21.652;2023-03-12T07:34:12;0.36;93.68
69162;DHT22;56269;51.738;21.652;2023-03-12T07:36:38;0.28;93.96
69162;DHT22;56269;51.738;21.652;2023-03-12T07:39:04;0.26;94.40
69162;DHT22;56269;51.738;21.652;2023-03-12T07:41:31;0.41;93.81
69162;DHT22;56269;51.738;21.652;2023-03-12T07:43:57;0.77;92.71
69162;DHT22;56269;51.738;21.652;2023-03-12T07:46:23;0.69;92.61
69162;DHT22;56269;51.738;21.652;2023-03-12T07:48:49;0.50;92.88
69162;DHT22;56269;51.738;21.652;2023-03-12T07:51:15;0.60;93.08
69162;DHT22;56269;51.738;21.652;2023-03-12T07:53:42;0.48;93.30
69162;DHT22;56269;51.738;21.652;2023-03-12T07:56:08;0.60;92.97
69162;DHT22;56269;51.738;21.652;2023-03-12T07:58:34;0.54;93.16
69162;DHT22;56269;51.738;21.652;2023-03-12T08:01:01;0.88;92.88
69162;DHT22;56269;51.738;21.652;2023-03-12T08:03:28;1.20;91.29
69162;DHT22;56269;51.738;21.652;2023-03-12T08:05:59;1.90;89.27
69162;DHT22;56269;51.738;21.652;2023-03-12T08:08:26;1.67;88.71
69162;DHT22;56269;51.738;21.652;2023-03-12T08:10:53;1.48;88.57
69162;DHT22;56269;51.738;21.652;2023-03-12T08:13:20;1.76;88.30
69162;DHT22;56269;51.738;21.652;2023-03-12T08:15:49;1.72;88.19
69162;DHT22;56269;51.738;21.652;2023-03-12T08:18:17;2.28;87.02
69162;DHT22;56269;51.738;21.652;2023-03-12T08:20:44;2.88;83.35
69162;DHT22;56269;51.738;21.652;2023-03-12T08:23:10;2.85;84.33
69162;DHT22;56269;51.738;21.652;2023-03-12T08:25:36;2.68;83.19
69162;DHT22;56269;51.738;21.652;2023-03-12T08:28:03;2.21;84.74
69162;DHT22;56269;51.738;21.652;2023-03-12T08:30:30;1.99;85.63
69162;DHT22;56269;51.738;21.652;2023-03-12T08:32:57;1.80;85.94
69162;DHT22;56269;51.738;21.652;2023-03-12T08:35:23;1.49;85.40
69162;DHT22;56269;51.738;21.652;2023-03-12T08:37:49;1.20;86.89
69162;DHT22;56269;51.738;21.652;2023-03-12T08:40:15;1.20;87.14
69162;DHT22;56269;51.738;21.652;2023-03-12T08:42:43;0.95;87.68
69162;DHT22;56269;51.738;21.652;2023-03-12T08:45:15;0.85;88.63
69162;DHT22;56269;51.738;21.652;2023-03-12T08:47:42;0.70;90.23
69162;DHT22;56269;51.738;21.652;2023-03-12T08:50:10;0.41;92.23
69162;DHT22;56269;51.738;21.652;2023-03-12T08:52:37;0.02;94.57
69162;DHT22;56269;51.738;21.652;2023-03-12T08:55:03;0.19;96.04
69162;DHT22;56269;51.738;21.652;2023-03-12T08:57:31;0.81;93.23
69162;DHT22;56269;51.738;21.652;2023-03-12T08:59:57;1.65;89.37
69162;DHT22;56269;51.738;21.652;2023-03-12T09:02:23;3.29;85.15
69162;DHT22;56269;51.738;21.652;2023-03-12T09:04:49;3.99;81.64
69162;DHT22;56269;51.738;21.652;2023-03-12T09:07:16;3.23;82.15
69162;DHT22;56269;51.738;21.652;2023-03-12T09:09:46;2.59;82.72
69162;DHT22;56269;51.738;21.652;2023-03-12T09:12:13;2.28;84.52
69162;DHT22;56269;51.738;21.652;2023-03-12T09:14:39;2.54;81.78
69162;DHT22;56269;51.738;21.652;2023-03-12T09:17:05;2.66;82.18
69162;DHT22;56269;51.738;21.652;2023-03-12T09:19:31;3.34;78.01
69162;DHT22;56269;51.738;21.652;2023-03-12T09:21:58;3.00;80.34
69162;DHT22;56269;51.738;21.652;2023-03-12T09:24:24;2.99;78.24
69162;DHT22;56269;51.738;21.652;2023-03-12T09:26:50;2.54;79.46
69162;DHT22;56269;51.738;21.652;2023-03-12T09:29:16;2.11;80.24
69162;DHT22;56269;51.738;21.652;2023-03-12T09:31:43;1.73;81.63
69162;DHT22;56269;51.738;21.652;2023-03-12T09:34:09;1.56;83.30
69162;DHT22;56269;51.738;21.652;2023-03-12T09:36:35;1.56;82.40
69162;DHT22;56269;51.738;21.652;2023-03-12T09:39:02;1.41;82.90
69162;DHT22;56269;51.738;21.652;2023-03-12T09:41:32;1.77;81.33
69162;DHT22;56269;51.738;21.652;2023-03-12T09:44:12;2.45;78.69
69162;DHT22;56269;51.738;21.652;2023-03-12T09:46:47;2.10;76.94
69162;DHT22;56269;51.738;21.652;2023-03-12T09:49:34;1.63;77.14
69162;DHT22;56269;51.738;21.652;2023-03-12T09:52:12;1.51;78.82
69162;DHT22;56269;51.738;21.652;2023-03-12T09:54:45;1.39;78.43
69162;DHT22;56269;51.738;21.652;2023-03-12T09:57:21;1.38;79.26
69162;DHT22;56269;51.738;21.652;2023-03-12T09:59:49;1.44;79.74
69162;DHT22;56269;51.738;21.652;2023-03-12T10:03:38;2.30;78.74
69162;DHT22;56269;51.738;21.652;2023-03-12T10:05:46;2.88;74.84
69162;DHT22;56269;51.738;21.652;2023-03-12T10:16:32;2.18;75.28
69162;DHT22;56269;51.738;21.652;2023-03-12T10:22:16;1.72;74.17
69162;DHT22;56269;51.738;21.652;2023-03-12T10:25:06;1.66;74.29
69162;DHT22;56269;51.738;21.652;2023-03-12T10:27:34;1.86;74.88
69162;DHT22;56269;51.738;21.652;2023-03-12T10:30:15;1.70;74.00
69162;DHT22;56269;51.738;21.652;2023-03-12T10:32:49;1.73;74.69
69162;DHT22;56269;51.738;21.652;2023-03-12T10:35:23;1.95;74.18
69162;DHT22;56269;51.738;21.652;2023-03-12T10:40:25;2.14;73.09
69162;DHT22;56269;51.738;21.652;2023-03-12T10:42:51;2.05;73.06
69162;DHT22;56269;51.738;21.652;2023-03-12T10:45:33;1.90;75.20
69162;DHT22;56269;51.738;21.652;2023-03-12T10:48:07;2.16;73.61
69162;DHT22;56269;51.738;21.652;2023-03-12T10:50:39;2.36;72.40
69162;DHT22;56269;51.738;21.652;2023-03-12T10:53:23;2.51;72.59
69162;DHT22;56269;51.738;21.652;2023-03-12T10:58:36;2.64;72.33
69162;DHT22;56269;51.738;21.652;2023-03-12T11:01:04;2.89;69.53
69162;DHT22;56269;51.738;21.652;2023-03-12T11:03:31;2.99;69.19
69162;DHT22;56269;51.738;21.652;2023-03-12T11:06:01;3.29;69.28
69162;DHT22;56269;51.738;21.652;2023-03-12T11:08:30;2.99;68.78
69162;DHT22;56269;51.738;21.652;2023-03-12T11:10:59;2.74;68.29
69162;DHT22;56269;51.738;21.652;2023-03-12T11:13:34;2.48;69.58
69162;DHT22;56269;51.738;21.652;2023-03-12T11:16:25;2.28;70.05
69162;DHT22;56269;51.738;21.652;2023-03-12T11:18:55;2.07;70.04
69162;DHT22;56269;51.738;21.652;2023-03-12T11:21:22;2.33;70.41
69162;DHT22;56269;51.738;21.652;2023-03-12T11:26:29;2.54;70.28
69162;DHT22;56269;51.738;21.652;2023-03-12T11:29:02;2.71;69.50
69162;DHT22;56269;51.738;21.652;2023-03-12T11:31:47;3.46;70.46
69162;DHT22;56269;51.738;21.652;2023-03-12T11:34:22;3.50;66.27
69162;DHT22;56269;51.738;21.652;2023-03-12T11:37:09;3.77;67.80
69162;DHT22;56269;51.738;21.652;2023-03-12T11:42:36;3.67;69.61
69162;DHT22;56269;51.738;21.652;2023-03-12T11:51:14;3.46;66.46
69162;DHT22;56269;51.738;21.652;2023-03-12T11:54:05;3.99;67.78
69162;DHT22;56269;51.738;21.652;2023-03-12T11:56:40;3.97;66.03
69162;DHT22;56269;51.738;21.652;2023-03-12T12:16:54;2.81;65.73
69162;DHT22;56269;51.738;21.652;2023-03-12T12:27:26;4.16;62.44
69162;DHT22;56269;51.738;21.652;2023-03-12T12:35:37;3.80;65.12
69162;DHT22;56269;51.738;21.652;2023-03-12T12:43:40;4.19;63.46
69162;DHT22;56269;51.738;21.652;2023-03-12T12:46:29;3.60;65.01
69162;DHT22;56269;51.738;21.652;2023-03-12T12:49:00;3.66;62.97
69162;DHT22;56269;51.738;21.652;2023-03-12T12:51:34;3.75;64.04
69162;DHT22;56269;51.738;21.652;2023-03-12T12:56:55;3.46;67.93
69162;DHT22;56269;51.738;21.652;2023-03-12T12:59:31;3.75;65.53
69162;DHT22;56269;51.738;21.652;2023-03-12T13:02:02;3.57;63.01
69162;DHT22;56269;51.738;21.652;2023-03-12T13:04:37;3.24;64.28
69162;DHT22;56269;51.738;21.652;2023-03-12T13:07:28;3.44;65.82
69162;DHT22;56269;51.738;21.652;2023-03-12T13:09:58;3.47;65.06
69162;DHT22;56269;51.738;21.652;2023-03-12T13:15:34;3.77;64.49
69162;DHT22;56269;51.738;21.652;2023-03-12T13:18:23;3.51;65.01
69162;DHT22;56269;51.738;21.652;2023-03-12T13:32:02;3.80;63.96
69162;DHT22;56269;51.738;21.652;2023-03-12T13:34:40;3.60;65.42
69162;DHT22;56269;51.738;21.652;2023-03-12T13:37:19;3.84;64.46
69162;DHT22;56269;51.738;21.652;2023-03-12T13:39:45;3.67;64.75
69162;DHT22;56269;51.738;21.652;2023-03-12T13:42:34;3.49;64.61
69162;DHT22;56269;51.738;21.652;2023-03-12T13:45:21;3.32;65.82
69162;DHT22;56269;51.738;21.652;2023-03-12T13:47:59;3.12;65.35
69162;DHT22;56269;51.738;21.652;2023-03-12T13:50:26;3.59;65.20
69162;DHT22;56269;51.738;21.652;2023-03-12T13:53:05;4.19;63.65
69162;DHT22;56269;51.738;21.652;2023-03-12T13:55:34;4.56;62.73
69162;DHT22;56269;51.738;21.652;2023-03-12T13:58:08;4.59;63.59
69162;DHT22;56269;51.738;21.652;2023-03-12T14:03:33;4.57;64.49
69162;DHT22;56269;51.738;21.652;2023-03-12T14:06:10;4.19;60.78
69162;DHT22;56269;51.738;21.652;2023-03-12T14:09:21;4.32;61.17
69162;DHT22;56269;51.738;21.652;2023-03-12T14:12:05;4.12;61.17
69162;DHT22;56269;51.738;21.652;2023-03-12T14:17:22;4.38;62.90
69162;DHT22;56269;51.738;21.652;2023-03-12T14:20:04;4.53;61.13
69162;DHT22;56269;51.738;21.652;2023-03-12T14:22:36;4.45;60.14
69162;DHT22;56269;51.738;21.652;2023-03-12T14:28:00;4.73;62.87
69162;DHT22;56269;51.738;21.652;2023-03-12T14:30:35;4.32;64.73
69162;DHT22;56269;51.738;21.652;2023-03-12T14:33:06;4.28;62.77
69162;DHT22;56269;51.738;21.652;2023-03-12T14:35:42;4.29;66.55
69162;DHT22;56269;51.738;21.652;2023-03-12T14:38:17;3.97;63.78
69162;DHT22;56269;51.738;21.652;2023-03-12T14:43:28;4.08;60.73
69162;DHT22;56269;51.738;21.652;2023-03-12T14:45:57;3.59;62.33
69162;DHT22;56269;51.738;21.652;2023-03-12T14:48:30;3.34;63.64
69162;DHT22;56269;51.738;21.652;2023-03-12T14:50:58;3.15;62.93
69162;DHT22;56269;51.738;21.652;2023-03-12T14:53:28;3.26;63.25
69162;DHT22;56269;51.738;21.652;2023-03-12T14:56:05;3.12;63.72
69162;DHT22;56269;51.738;21.652;2023-03-12T14:58:34;3.03;63.89
69162;DHT22;56269;51.738;21.652;2023-03-12T15:01:13;3.08;64.57
69162;DHT22;56269;51.738;21.652;2023-03-12T15:03:43;3.02;65.40
69162;DHT22;56269;51.738;21.652;2023-03-12T15:08:51;2.98;65.44
69162;DHT22;56269;51.738;21.652;2023-03-12T15:11:22;2.93;67.55
69162;DHT22;56269;51.738;21.652;2023-03-12T15:13:52;2.93;65.70
69162;DHT22;56269;51.738;21.652;2023-03-12T15:16:22;2.99;64.43
69162;DHT22;56269;51.738;21.652;2023-03-12T15:18:49;2.96;65.99
69162;DHT22;56269;51.738;21.652;2023-03-12T15:21:16;2.87;66.34
69162;DHT22;56269;51.738;21.652;2023-03-12T15:23:44;2.85;68.66
69162;DHT22;56269;51.738;21.652;2023-03-12T15:31:45;2.93;67.74
69162;DHT22;56269;51.738;21.652;2023-03-12T15:34:14;2.85;68.03
69162;DHT22;56269;51.738;21.652;2023-03-12T15:36:51;2.78;68.78
69162;DHT22;56269;51.738;21.652;2023-03-12T15:39:27;2.82;68.11
69162;DHT22;56269;51.738;21.652;2023-03-12T15:42:00;2.78;68.53
69162;DHT22;56269;51.738;21.652;2023-03-12T15:44:34;2.81;67.86
69162;DHT22;56269;51.738;21.652;2023-03-12T15:47:16;2.78;68.86
69162;DHT22;56269;51.738;21.652;2023-03-12T15:49:52;2.77;69.36
69162;DHT22;56269;51.738;21.652;2023-03-12T15:55:22;2.75;68.13
69162;DHT22;56269;51.738;21.652;2023-03-12T15:57:52;2.74;70.04
69162;DHT22;56269;51.738;21.652;2023-03-12T16:03:00;2.72;68.59
69162;DHT22;56269;51.738;21.652;2023-03-12T16:05:32;2.66;70.50
69162;DHT22;56269;51.738;21.652;2023-03-12T16:08:12;2.62;69.32
69162;DHT22;56269;51.738;21.652;2023-03-12T16:10:39;2.62;70.89
69162;DHT22;56269;51.738;21.652;2023-03-12T16:13:10;2.58;69.91
69162;DHT22;56269;51.738;21.652;2023-03-12T16:15:38;2.48;70.96
69162;DHT22;56269;51.738;21.652;2023-03-12T16:18:11;2.41;71.20
69162;DHT22;56269;51.738;21.652;2023-03-12T16:20:38;2.36;71.87
69162;DHT22;56269;51.738;21.652;2023-03-12T16:23:07;2.33;71.66
69162;DHT22;56269;51.738;21.652;2023-03-12T16:25:34;2.30;71.00
69162;DHT22;56269;51.738;21.652;2023-03-12T16:28:04;2.24;72.64
69162;DHT22;56269;51.738;21.652;2023-03-12T16:30:35;2.27;71.69
69162;DHT22;56269;51.738;21.652;2023-03-12T16:33:04;2.18;72.16
69162;DHT22;56269;51.738;21.652;2023-03-12T16:35:31;2.05;73.34
69162;DHT22;56269;51.738;21.652;2023-03-12T16:37:59;2.00;72.22
69162;DHT22;56269;51.738;21.652;2023-03-12T16:40:30;2.02;73.26
69162;DHT22;56269;51.738;21.652;2023-03-12T16:42:59;2.02;73.12
69162;DHT22;56269;51.738;21.652;2023-03-12T16:45:33;1.99;73.95
69162;DHT22;56269;51.738;21.652;2023-03-12T16:48:04;1.90;73.99
69162;DHT22;56269;51.738;21.652;2023-03-12T16:50:30;1.89;73.87
69162;DHT22;56269;51.738;21.652;2023-03-12T16:52:59;1.77;74.66
69162;DHT22;56269;51.738;21.652;2023-03-12T16:55:29;1.62;76.03
69162;DHT22;56269;51.738;21.652;2023-03-12T16:58:05;1.55;75.63
69162;DHT22;56269;51.738;21.652;2023-03-12T17:00:33;1.44;76.29
69162;DHT22;56269;51.738;21.652;2023-03-12T17:03:00;1.35;77.62
69162;DHT22;56269;51.738;21.652;2023-03-12T17:05:28;1.23;78.67
69162;DHT22;56269;51.738;21.652;2023-03-12T17:07:56;1.13;78.82
69162;DHT22;56269;51.738;21.652;2023-03-12T17:10:24;1.05;78.53
69162;DHT22;56269;51.738;21.652;2023-03-12T17:12:52;0.97;79.13
69162;DHT22;56269;51.738;21.652;2023-03-12T17:15:26;0.85;79.54
69162;DHT22;56269;51.738;21.652;2023-03-12T17:17:54;0.81;80.42
69162;DHT22;56269;51.738;21.652;2023-03-12T17:20:22;0.73;81.16
69162;DHT22;56269;51.738;21.652;2023-03-12T17:22:50;0.64;82.01
69162;DHT22;56269;51.738;21.652;2023-03-12T17:25:28;0.59;81.89
69162;DHT22;56269;51.738;21.652;2023-03-12T17:27:56;0.48;81.68
69162;DHT22;56269;51.738;21.652;2023-03-12T17:30:24;0.41;82.28
69162;DHT22;56269;51.738;21.652;2023-03-12T17:32:52;0.43;81.89